createdAt,value
2022-11-28T00:00:10.032Z,15.57
2022-11-28T00:02:34.890Z,12.77
2022-11-28T00:04:57.154Z,15.83
2022-11-28T00:07:19.429Z,13.00
2022-11-28T00:09:42.001Z,11.23
2022-11-28T00:12:04.287Z,9.20
2022-11-28T00:14:26.531Z,10.53
2022-11-28T00:16:48.844Z,11.53
2022-11-28T00:19:12.015Z,12.07
2022-11-28T00:21:34.618Z,9.63
2022-11-28T00:23:56.823Z,11.53
2022-11-28T00:26:20.702Z,12.47
2022-11-28T00:28:43.172Z,9.83
2022-11-28T00:31:05.437Z,10.77
2022-11-28T00:33:28.146Z,9.63
2022-11-28T00:35:50.402Z,8.27
2022-11-28T00:38:12.673Z,9.87
2022-11-28T00:40:34.913Z,10.70
2022-11-28T00:42:57.114Z,11.30
2022-11-28T00:45:19.333Z,10.77
2022-11-28T00:47:41.492Z,11.87
2022-11-28T00:50:04.087Z,10.00
2022-11-28T00:52:26.319Z,10.30
2022-11-28T00:54:48.518Z,12.43
2022-11-28T00:57:10.734Z,10.40
2022-11-28T00:59:33.046Z,10.63
2022-11-28T01:01:55.338Z,12.00
2022-11-28T01:04:18.387Z,12.50
2022-11-28T01:06:42.219Z,10.33
2022-11-28T01:09:05.782Z,12.50
2022-11-28T01:11:28.519Z,12.63
2022-11-28T01:13:50.871Z,10.57
2022-11-28T01:16:13.300Z,13.40
2022-11-28T01:18:35.671Z,10.80
2022-11-28T01:20:57.899Z,11.03
2022-11-28T01:23:20.114Z,12.43
2022-11-28T01:25:42.372Z,10.27
2022-11-28T01:28:04.607Z,9.33
2022-11-28T01:30:26.869Z,10.57
2022-11-28T01:32:49.154Z,15.77
2022-11-28T01:35:11.471Z,12.27
2022-11-28T01:37:33.690Z,12.27
2022-11-28T01:39:56.042Z,10.10
2022-11-28T01:42:19.129Z,11.13
2022-11-28T01:44:41.597Z,10.67
2022-11-28T01:47:04.160Z,11.07
2022-11-28T01:49:31.424Z,10.17
2022-11-28T01:51:56.713Z,9.23
2022-11-28T01:54:20.442Z,9.00
2022-11-28T01:56:48.007Z,9.77
2022-11-28T01:59:10.912Z,8.97
2022-11-28T02:01:33.210Z,9.57
2022-11-28T02:03:56.170Z,10.00
2022-11-28T02:06:20.472Z,10.77
2022-11-28T02:08:52.551Z,12.70
2022-11-28T02:11:27.623Z,13.17
2022-11-28T02:14:01.187Z,11.83
2022-11-28T02:16:23.660Z,10.13
2022-11-28T02:18:50.422Z,10.63
2022-11-28T02:21:13.719Z,10.20
2022-11-28T02:23:50.878Z,12.00
2022-11-28T02:26:31.836Z,9.63
2022-11-28T02:29:04.096Z,10.53
2022-11-28T02:31:46.325Z,12.33
2022-11-28T02:34:14.970Z,11.40
2022-11-28T02:36:43.395Z,11.23
2022-11-28T02:39:05.623Z,13.43
2022-11-28T02:41:37.123Z,9.53
2022-11-28T02:44:05.307Z,11.57
2022-11-28T02:46:34.724Z,10.83
2022-11-28T02:48:57.032Z,9.33
2022-11-28T02:51:29.175Z,11.67
2022-11-28T02:53:52.736Z,10.07
2022-11-28T02:56:15.145Z,9.47
2022-11-28T02:58:38.263Z,9.97
2022-11-28T03:01:00.700Z,12.87
2022-11-28T03:04:01.883Z,11.80
2022-11-28T03:06:33.275Z,11.13
2022-11-28T03:08:58.198Z,11.10
2022-11-28T03:11:26.371Z,10.70
2022-11-28T03:13:57.437Z,11.97
2022-11-28T03:16:22.844Z,11.53
2022-11-28T03:18:51.167Z,11.73
2022-11-28T03:21:17.208Z,12.27
2022-11-28T03:23:44.320Z,12.90
2022-11-28T03:26:12.552Z,11.93
2022-11-28T03:28:46.586Z,10.27
2022-11-28T03:31:11.768Z,11.50
2022-11-28T03:33:38.680Z,11.97
2022-11-28T03:36:06.546Z,10.70
2022-11-28T03:38:36.972Z,11.83
2022-11-28T03:41:02.089Z,11.63
2022-11-28T03:43:26.623Z,12.07
2022-11-28T03:45:52.551Z,10.50
2022-11-28T03:48:17.931Z,12.07
2022-11-28T03:50:42.685Z,12.63
2022-11-28T03:53:08.194Z,15.67
2022-11-28T03:55:41.091Z,12.20
2022-11-28T03:58:32.415Z,14.77
2022-11-28T04:01:06.827Z,12.93
2022-11-28T04:03:41.903Z,14.77
2022-11-28T04:06:17.452Z,13.47
2022-11-28T04:08:42.088Z,12.07
2022-11-28T04:11:06.923Z,12.90
2022-11-28T04:13:38.070Z,13.33
2022-11-28T04:16:04.259Z,15.13
2022-11-28T04:18:40.061Z,12.60
2022-11-28T04:21:11.120Z,11.53
2022-11-28T04:23:33.764Z,10.20
2022-11-28T04:26:01.372Z,14.10
2022-11-28T04:28:25.800Z,14.07
2022-11-28T04:30:49.585Z,14.53
2022-11-28T04:33:14.056Z,13.03
2022-11-28T04:35:42.606Z,14.17
2022-11-28T04:38:07.419Z,21.13
2022-11-28T04:40:32.019Z,16.63
2022-11-28T04:42:55.891Z,14.33
2022-11-28T04:45:24.285Z,14.83
2022-11-28T04:47:46.648Z,13.00
2022-11-28T04:50:09.283Z,16.50
2022-11-28T04:52:37.524Z,14.93
2022-11-28T04:55:07.091Z,17.73
2022-11-28T04:57:31.615Z,12.87
2022-11-28T04:59:54.361Z,13.87
2022-11-28T05:02:17.035Z,13.37
2022-11-28T05:04:39.571Z,13.60
2022-11-28T05:07:05.973Z,14.60
2022-11-28T05:09:28.241Z,14.43
2022-11-28T05:11:50.460Z,15.50
2022-11-28T05:14:12.721Z,14.00
2022-11-28T05:16:35.040Z,13.83
2022-11-28T05:19:02.646Z,17.30
2022-11-28T05:21:24.970Z,13.30
2022-11-28T05:23:47.267Z,15.33
2022-11-28T05:26:11.810Z,11.43
2022-11-28T05:28:34.277Z,15.00
2022-11-28T05:30:59.944Z,13.67
2022-11-28T05:33:22.148Z,14.53
2022-11-28T05:35:44.360Z,13.90
2022-11-28T05:38:12.091Z,13.47
2022-11-28T05:40:35.884Z,12.47
2022-11-28T05:42:58.117Z,14.03
2022-11-28T05:45:20.356Z,14.23
2022-11-28T05:47:42.536Z,16.23
2022-11-28T05:50:05.051Z,10.90
2022-11-28T05:52:29.785Z,12.20
2022-11-28T05:54:52.316Z,11.83
2022-11-28T05:57:14.515Z,12.20
2022-11-28T05:59:36.784Z,12.77
2022-11-28T06:01:59.122Z,10.33
2022-11-28T06:04:21.389Z,11.37
2022-11-28T06:06:43.702Z,11.17
2022-11-28T06:09:06.338Z,14.77
2022-11-28T06:11:30.067Z,12.13
2022-11-28T06:13:52.647Z,10.83
2022-11-28T06:16:17.271Z,9.47
2022-11-28T06:18:39.999Z,12.73
2022-11-28T06:21:03.310Z,10.10
2022-11-28T06:23:25.672Z,11.93
2022-11-28T06:25:47.988Z,11.03
2022-11-28T06:28:10.220Z,11.00
2022-11-28T06:30:32.503Z,9.17
2022-11-28T06:32:54.717Z,10.80
2022-11-28T06:35:17.236Z,8.93
2022-11-28T06:37:39.494Z,13.47
2022-11-28T06:40:01.736Z,10.23
2022-11-28T06:42:23.959Z,10.00
2022-11-28T06:44:46.219Z,9.90
2022-11-28T06:47:08.492Z,13.47
2022-11-28T06:49:30.768Z,11.10
2022-11-28T06:51:52.963Z,10.50
2022-11-28T06:54:27.376Z,12.67
2022-11-28T06:56:49.889Z,9.07
2022-11-28T06:59:12.430Z,13.27
2022-11-28T07:01:34.689Z,9.90
2022-11-28T07:03:57.091Z,10.57
2022-11-28T07:06:19.866Z,10.30
2022-11-28T07:08:42.671Z,9.80
2022-11-28T07:11:12.431Z,9.53
2022-11-28T07:13:34.693Z,9.07
2022-11-28T07:15:56.851Z,10.00
2022-11-28T07:18:19.095Z,10.73
2022-11-28T07:20:41.320Z,9.63
2022-11-28T07:23:04.532Z,10.00
2022-11-28T07:25:26.791Z,10.17
2022-11-28T07:27:49.159Z,9.43
2022-11-28T07:30:11.553Z,10.90
2022-11-28T07:32:33.764Z,9.87
2022-11-28T07:34:55.991Z,8.97
2022-11-28T07:37:18.396Z,10.47
2022-11-28T07:39:42.535Z,9.57
2022-11-28T07:42:04.939Z,10.00
2022-11-28T07:44:27.662Z,9.93
2022-11-28T07:46:50.050Z,10.07
2022-11-28T07:49:13.232Z,8.53
2022-11-28T07:51:35.599Z,9.90
2022-11-28T07:53:57.782Z,9.03
2022-11-28T07:56:21.898Z,8.93
2022-11-28T07:58:45.356Z,9.90
2022-11-28T08:01:26.971Z,11.93
2022-11-28T08:03:50.371Z,10.17
2022-11-28T08:06:13.412Z,10.40
2022-11-28T08:08:36.060Z,9.20
2022-11-28T08:11:02.076Z,9.80
2022-11-28T08:13:24.338Z,8.77
2022-11-28T08:15:46.585Z,12.80
2022-11-28T08:18:08.866Z,8.27
2022-11-28T08:20:31.127Z,8.57
2022-11-28T08:22:53.319Z,7.67
2022-11-28T08:25:16.421Z,7.90
2022-11-28T08:27:38.727Z,12.07
2022-11-28T08:30:00.977Z,8.87
2022-11-28T08:32:23.194Z,9.60
2022-11-28T08:34:46.369Z,15.70
2022-11-28T08:37:08.563Z,8.70
2022-11-28T08:39:30.799Z,11.70
2022-11-28T08:41:57.023Z,11.00
2022-11-28T08:44:19.497Z,10.40
2022-11-28T08:46:41.838Z,9.33
2022-11-28T08:49:04.902Z,8.23
2022-11-28T08:51:27.210Z,8.20
2022-11-28T08:53:49.578Z,10.27
2022-11-28T08:56:13.103Z,11.87
2022-11-28T08:58:38.354Z,8.83
2022-11-28T09:01:00.659Z,9.60
2022-11-28T09:03:23.090Z,7.93
2022-11-28T09:05:47.036Z,8.97
2022-11-28T09:08:11.767Z,8.47
2022-11-28T09:10:36.943Z,10.90
2022-11-28T09:12:59.440Z,8.30
2022-11-28T09:15:21.655Z,11.00
2022-11-28T09:17:44.012Z,10.47
2022-11-28T09:20:06.922Z,11.83
2022-11-28T09:22:30.106Z,8.63
2022-11-28T09:24:52.416Z,8.47
2022-11-28T09:27:14.641Z,10.97
2022-11-28T09:29:37.015Z,10.53
2022-11-28T09:31:59.413Z,11.10
2022-11-28T09:34:21.702Z,9.30
2022-11-28T09:36:45.531Z,8.90
2022-11-28T09:39:07.800Z,8.80
2022-11-28T09:41:32.829Z,8.67
2022-11-28T09:43:57.356Z,8.63
2022-11-28T09:46:25.555Z,10.40
2022-11-28T09:48:51.354Z,8.73
2022-11-28T09:51:28.295Z,8.53
2022-11-28T09:54:02.820Z,7.17
2022-11-28T09:56:25.170Z,10.97
2022-11-28T09:58:58.970Z,9.07
2022-11-28T10:01:33.110Z,10.17
2022-11-28T10:04:17.608Z,7.80
2022-11-28T10:07:09.981Z,9.53
2022-11-28T10:09:35.289Z,7.43
2022-11-28T10:12:06.432Z,8.30
2022-11-28T10:14:47.522Z,7.33
2022-11-28T10:17:28.728Z,7.63
2022-11-28T10:19:55.172Z,6.47
2022-11-28T10:22:19.742Z,7.27
2022-11-28T10:24:45.655Z,7.30
2022-11-28T10:27:08.156Z,6.10
2022-11-28T10:29:31.322Z,7.90
2022-11-28T10:31:55.759Z,10.70
2022-11-28T10:34:33.121Z,7.13
2022-11-28T10:37:02.129Z,6.90
2022-11-28T10:39:26.351Z,10.23
2022-11-28T10:42:13.979Z,8.63
2022-11-28T10:44:40.595Z,5.90
2022-11-28T10:47:08.829Z,6.77
2022-11-28T10:49:36.586Z,9.70
2022-11-28T10:52:01.690Z,5.77
2022-11-28T10:54:33.406Z,7.20
2022-11-28T10:57:14.626Z,6.50
2022-11-28T10:59:51.167Z,9.13
2022-11-28T11:02:21.487Z,9.93
2022-11-28T11:04:43.952Z,9.43
2022-11-28T11:07:29.509Z,8.87
2022-11-28T11:09:52.687Z,9.50
2022-11-28T11:12:21.302Z,8.10
2022-11-28T11:14:44.811Z,10.63
2022-11-28T11:17:07.284Z,5.83
2022-11-28T11:19:31.022Z,10.57
2022-11-28T11:22:19.702Z,8.23
2022-11-28T11:24:41.911Z,11.70
2022-11-28T11:27:06.478Z,7.40
2022-11-28T11:29:28.732Z,5.87
2022-11-28T11:31:52.846Z,6.37
2022-11-28T11:34:19.099Z,9.10
2022-11-28T11:36:41.352Z,6.90
2022-11-28T11:39:10.872Z,7.70
2022-11-28T11:41:33.691Z,7.57
2022-11-28T11:43:56.442Z,7.97
2022-11-28T11:46:18.970Z,6.40
2022-11-28T11:48:42.523Z,6.47
2022-11-28T11:51:04.932Z,9.27
2022-11-28T11:53:27.567Z,5.27
2022-11-28T11:55:51.996Z,7.80
2022-11-28T11:58:16.776Z,7.00
2022-11-28T12:00:40.971Z,10.83
2022-11-28T12:03:22.214Z,10.93
2022-11-28T12:06:12.763Z,6.60
2022-11-28T12:08:39.465Z,10.07
2022-11-28T12:11:08.664Z,9.40
2022-11-28T12:13:36.025Z,7.70
2022-11-28T12:16:06.541Z,9.37
2022-11-28T12:18:39.326Z,8.40
2022-11-28T12:21:06.130Z,9.60
2022-11-28T12:23:34.548Z,8.33
2022-11-28T12:26:00.072Z,9.13
2022-11-28T12:28:37.963Z,9.43
2022-11-28T12:31:12.692Z,8.10
2022-11-28T12:33:43.509Z,8.93
2022-11-28T12:36:06.232Z,8.20
2022-11-28T12:39:01.912Z,7.50
2022-11-28T12:41:32.695Z,7.47
2022-11-28T12:44:01.636Z,7.90
2022-11-28T12:46:27.511Z,10.07
2022-11-28T12:49:09.020Z,7.67
2022-11-28T12:51:50.262Z,7.57
2022-11-28T12:54:31.304Z,7.93
2022-11-28T12:56:59.584Z,14.67
2022-11-28T12:59:27.532Z,10.23
2022-11-28T13:02:09.917Z,9.77
2022-11-28T13:04:41.859Z,8.83
2022-11-28T13:07:27.706Z,9.33
2022-11-28T13:10:11.050Z,8.20
2022-11-28T13:12:42.309Z,8.07
2022-11-28T13:15:11.872Z,8.70
2022-11-28T13:17:35.920Z,7.53
2022-11-28T13:20:09.282Z,8.40
2022-11-28T13:22:40.242Z,9.70
2022-11-28T13:25:13.160Z,8.30
2022-11-28T13:27:42.902Z,10.70
2022-11-28T13:30:20.625Z,8.73
2022-11-28T13:32:43.465Z,10.50
2022-11-28T13:35:05.996Z,8.47
2022-11-28T13:40:33.161Z,12.37
2022-11-28T13:43:07.176Z,9.50
2022-11-28T13:45:35.283Z,12.07
2022-11-28T13:48:01.460Z,10.53
2022-11-28T13:50:23.631Z,11.03
2022-11-28T13:52:47.465Z,10.40
2022-11-28T13:55:29.629Z,11.10
2022-11-28T13:57:57.104Z,11.13
2022-11-28T14:00:20.792Z,9.13
2022-11-28T14:02:45.660Z,14.43
2022-11-28T14:05:21.570Z,12.40
2022-11-28T14:07:48.629Z,12.70
2022-11-28T14:10:11.508Z,12.63
2022-11-28T14:12:46.030Z,14.03
2022-11-28T14:15:15.200Z,14.93
2022-11-28T14:17:40.573Z,14.40
2022-11-28T14:20:17.977Z,12.17
2022-11-28T14:22:49.292Z,16.23
2022-11-28T14:25:21.425Z,11.20
2022-11-28T14:27:49.411Z,16.17
2022-11-28T14:30:32.934Z,11.23
2022-11-28T14:32:57.124Z,12.67
2022-11-28T14:35:40.374Z,13.27
2022-11-28T14:38:02.698Z,12.57
2022-11-28T14:40:43.869Z,15.50
2022-11-28T14:43:24.465Z,12.40
2022-11-28T14:45:46.682Z,12.93
2022-11-28T14:48:21.886Z,13.00
2022-11-28T14:50:48.686Z,11.83
2022-11-28T14:53:35.408Z,13.47
2022-11-28T14:56:10.033Z,12.80
2022-11-28T14:58:32.574Z,17.47
2022-11-28T15:00:58.081Z,15.07
2022-11-28T15:03:34.575Z,12.77
2022-11-28T15:06:03.850Z,15.80
2022-11-28T15:08:26.296Z,12.57
2022-11-28T15:10:48.954Z,13.20
2022-11-28T15:13:11.766Z,14.43
2022-11-28T15:15:34.727Z,14.67
2022-11-28T15:17:59.931Z,13.57
2022-11-28T15:20:30.502Z,13.03
2022-11-28T15:22:53.122Z,19.80
2022-11-28T15:25:18.503Z,16.33
2022-11-28T15:27:41.478Z,15.33
2022-11-28T15:30:04.725Z,17.00
2022-11-28T15:32:28.645Z,14.77
2022-11-28T15:34:55.781Z,17.20
2022-11-28T15:37:19.417Z,15.80
2022-11-28T15:39:42.226Z,13.27
2022-11-28T15:42:08.063Z,16.83
2022-11-28T15:44:37.842Z,14.33
2022-11-28T15:47:00.598Z,15.50
2022-11-28T15:49:31.367Z,14.53
2022-11-28T15:51:59.771Z,15.97
2022-11-28T15:54:37.080Z,13.73
2022-11-28T15:57:00.468Z,14.50
2022-11-28T15:59:26.589Z,15.00
2022-11-28T16:01:50.888Z,11.87
2022-11-28T16:04:16.505Z,13.10
2022-11-28T16:06:40.078Z,15.87
2022-11-28T16:09:05.160Z,12.77
2022-11-28T16:11:30.878Z,14.83
2022-11-28T16:13:55.476Z,15.63
2022-11-28T16:16:23.614Z,17.97
2022-11-28T16:18:49.867Z,16.10
2022-11-28T16:21:26.041Z,18.67
2022-11-28T16:23:48.783Z,19.83
2022-11-28T16:26:24.008Z,19.43
2022-11-28T16:28:56.447Z,20.03
2022-11-28T16:31:24.096Z,18.00
2022-11-28T16:33:47.799Z,18.73
2022-11-28T16:36:20.660Z,15.37
2022-11-28T16:38:47.176Z,19.03
2022-11-28T16:41:17.543Z,17.27
2022-11-28T16:43:40.753Z,13.73
2022-11-28T16:46:06.845Z,14.10
2022-11-28T16:48:34.548Z,19.07
2022-11-28T16:51:03.172Z,14.17
2022-11-28T16:53:44.486Z,17.17
2022-11-28T16:56:24.027Z,13.93
2022-11-28T16:58:46.393Z,15.63
2022-11-28T17:01:09.927Z,13.10
2022-11-28T17:03:44.797Z,17.43
2022-11-28T17:06:12.975Z,13.73
2022-11-28T17:08:35.143Z,15.30
2022-11-28T17:10:57.431Z,14.70
2022-11-28T17:13:19.648Z,15.07
2022-11-28T17:15:41.866Z,16.13
2022-11-28T17:18:04.361Z,14.70
2022-11-28T17:20:26.739Z,15.87
2022-11-28T17:22:51.057Z,15.63
2022-11-28T17:25:20.831Z,14.37
2022-11-28T17:27:43.358Z,16.23
2022-11-28T17:30:06.058Z,14.80
2022-11-28T17:32:38.005Z,16.50
2022-11-28T17:35:03.847Z,15.27
2022-11-28T17:37:26.707Z,17.67
2022-11-28T17:40:07.916Z,14.30
2022-11-28T17:42:30.533Z,15.67
2022-11-28T17:44:52.833Z,18.17
2022-11-28T17:47:15.219Z,15.47
2022-11-28T17:49:41.754Z,16.07
2022-11-28T17:52:06.983Z,15.00
2022-11-28T17:54:29.371Z,17.33
2022-11-28T17:56:52.914Z,15.80
2022-11-28T17:59:16.479Z,16.10
2022-11-28T18:01:39.063Z,16.17
2022-11-28T18:04:01.608Z,15.60
2022-11-28T18:06:24.307Z,15.47
2022-11-28T18:08:47.236Z,15.30
2022-11-28T18:11:10.456Z,18.00
2022-11-28T18:13:34.144Z,17.97
2022-11-28T18:15:57.588Z,17.00
2022-11-28T18:18:19.866Z,16.77
2022-11-28T18:20:42.126Z,22.20
2022-11-28T18:23:04.449Z,16.43
2022-11-28T18:25:27.543Z,15.03
2022-11-28T18:27:50.489Z,15.60
2022-11-28T18:30:27.806Z,16.40
2022-11-28T18:32:51.666Z,13.83
2022-11-28T18:35:14.178Z,17.07
2022-11-28T18:37:36.728Z,13.53
2022-11-28T18:39:59.143Z,12.70
2022-11-28T18:42:22.554Z,15.20
2022-11-28T18:44:45.271Z,15.07
2022-11-28T18:47:08.030Z,10.97
2022-11-28T18:49:30.951Z,13.17
2022-11-28T18:51:56.090Z,12.03
2022-11-28T18:54:21.369Z,9.50
2022-11-28T18:56:44.408Z,10.70
2022-11-28T18:59:07.437Z,9.83
2022-11-28T19:01:35.811Z,9.87
2022-11-28T19:03:59.622Z,10.10
2022-11-28T19:06:22.795Z,8.27
2022-11-28T19:08:45.380Z,8.30
2022-11-28T19:11:09.812Z,9.83
2022-11-28T19:13:32.177Z,9.10
2022-11-28T19:15:54.704Z,9.50
2022-11-28T19:18:18.482Z,9.97
2022-11-28T19:20:44.350Z,10.47
2022-11-28T19:23:09.007Z,10.80
2022-11-28T19:25:35.156Z,13.20
2022-11-28T19:27:57.481Z,10.93
2022-11-28T19:30:19.745Z,9.07
2022-11-28T19:32:42.457Z,9.27
2022-11-28T19:35:05.163Z,12.73
2022-11-28T19:37:27.920Z,12.57
2022-11-28T19:39:50.707Z,13.13
2022-11-28T19:42:13.744Z,14.47
2022-11-28T19:44:36.353Z,14.87
2022-11-28T19:47:00.356Z,9.67
2022-11-28T19:49:24.579Z,13.30
2022-11-28T19:51:47.909Z,13.53
2022-11-28T19:54:10.681Z,12.00
2022-11-28T19:56:33.900Z,12.77
2022-11-28T19:58:56.420Z,12.13
2022-11-28T20:01:20.722Z,10.93
2022-11-28T20:03:47.759Z,12.70
2022-11-28T20:06:33.391Z,12.23
2022-11-28T20:08:56.890Z,10.23
2022-11-28T20:11:30.563Z,10.47
2022-11-28T20:13:58.359Z,12.03
2022-11-28T20:16:20.928Z,12.43
2022-11-28T20:18:44.456Z,10.17
2022-11-28T20:21:08.533Z,11.20
2022-11-28T20:23:31.379Z,10.10
2022-11-28T20:25:54.107Z,9.67
2022-11-28T20:28:16.504Z,12.33
2022-11-28T20:30:39.890Z,15.10
2022-11-28T20:33:02.677Z,10.80
2022-11-28T20:35:25.329Z,10.37
2022-11-28T20:37:48.254Z,11.90
2022-11-28T20:40:11.112Z,10.87
2022-11-28T20:42:40.218Z,9.77
2022-11-28T20:45:02.705Z,14.30
2022-11-28T20:47:25.349Z,10.63
2022-11-28T20:49:49.831Z,13.33
2022-11-28T20:52:16.444Z,12.17
2022-11-28T20:54:38.963Z,9.93
2022-11-28T20:59:45.911Z,10.97
2022-11-28T21:02:11.316Z,9.63
2022-11-28T21:04:36.877Z,9.33
2022-11-28T21:07:00.000Z,11.70
2022-11-28T21:09:24.178Z,9.47
2022-11-28T21:11:57.371Z,9.53
2022-11-28T21:14:21.661Z,10.27
2022-11-28T21:16:44.374Z,10.17
2022-11-28T21:19:09.177Z,9.23
2022-11-28T21:21:32.076Z,9.10
2022-11-28T21:23:58.800Z,10.23
2022-11-28T21:26:24.932Z,9.70
2022-11-28T21:28:52.454Z,10.00
2022-11-28T21:31:20.583Z,11.73
2022-11-28T21:33:43.060Z,10.73
2022-11-28T21:36:06.548Z,9.40
2022-11-28T21:38:29.677Z,14.97
2022-11-28T21:40:53.261Z,13.70
2022-11-28T21:43:16.638Z,9.00
2022-11-28T21:45:39.731Z,9.17
2022-11-28T21:48:02.116Z,8.80
2022-11-28T21:50:28.665Z,10.53
2022-11-28T21:52:51.456Z,9.23
2022-11-28T21:55:14.620Z,12.93
2022-11-28T21:57:39.227Z,10.17
2022-11-28T22:00:02.394Z,9.30
2022-11-28T22:02:30.578Z,8.63
2022-11-28T22:04:53.525Z,11.00
2022-11-28T22:07:17.157Z,11.77
2022-11-28T22:09:39.954Z,10.03
2022-11-28T22:12:02.981Z,11.07
2022-11-28T22:14:33.621Z,8.77
2022-11-28T22:16:59.016Z,10.93
2022-11-28T22:19:21.576Z,10.13
2022-11-28T22:21:53.868Z,9.50
2022-11-28T22:24:18.506Z,12.77
2022-11-28T22:26:40.950Z,13.03
2022-11-28T22:29:04.136Z,10.50
2022-11-28T22:31:28.016Z,14.67
2022-11-28T22:33:50.862Z,11.60
2022-11-28T22:36:17.586Z,11.43
2022-11-28T22:38:40.667Z,10.37
2022-11-28T22:41:19.813Z,12.07
2022-11-28T22:43:48.117Z,12.57
2022-11-28T22:46:11.289Z,11.37
2022-11-28T22:48:35.203Z,12.47
2022-11-28T22:50:58.611Z,12.93
2022-11-28T22:53:22.071Z,12.50
2022-11-28T22:55:44.397Z,14.37
2022-11-28T22:58:06.972Z,11.43
2022-11-28T23:00:30.109Z,12.60
2022-11-28T23:02:53.788Z,10.07
2022-11-28T23:05:16.836Z,12.57
2022-11-28T23:07:39.318Z,16.37
2022-11-28T23:10:01.814Z,13.67
2022-11-28T23:12:25.018Z,13.23
2022-11-28T23:14:49.058Z,11.20
2022-11-28T23:17:12.121Z,12.30
2022-11-28T23:19:36.818Z,13.57
2022-11-28T23:22:01.698Z,15.17
2022-11-28T23:24:25.017Z,19.27
2022-11-28T23:26:49.198Z,14.83
2022-11-28T23:29:11.758Z,14.37
2022-11-28T23:31:35.363Z,12.70
2022-11-28T23:34:01.674Z,16.50
2022-11-28T23:36:25.395Z,16.57
2022-11-28T23:38:49.433Z,20.07
2022-11-28T23:41:12.190Z,12.77
2022-11-28T23:43:34.625Z,18.10
2022-11-28T23:45:57.213Z,11.87
2022-11-28T23:48:19.442Z,14.70
2022-11-28T23:50:41.960Z,15.90
2022-11-28T23:53:04.174Z,17.00
2022-11-28T23:55:27.542Z,13.20
2022-11-28T23:57:50.024Z,14.57
